메인 페이지
METAR-TAF:

METAR-TAF

공항 :

테구시갈파, 온두라스

위도: 14-03N, 경도: 087-13W, 고도: 994m

현재 날씨관측

예보는 26분 전, 07:00시(UTC)에 발표되었습니다.
북북동12kt
온도 18°C
습도 52%
기압 1021 hPa
시정 10km 이상
고도 2800ft 상공 구름 많음

METAR: MHTG 210700Z 02012KT 9999 BKN028 18/08 Q1021 A3015 NOSIG

시각: 01:26 (07:26 UTC)

예보

예보는 3 시간 1분 전, 04:25시(UTC)에 발표되었습니다.
예보 대상 시간: 21일 06시부터 22일 06시까지 (UTC)
12kt
시정 10km 이상
고도 2600ft 상공 구름 많음
전환 중
21일 09시부터 21일 11시까지 (UTC)
시정: 7000m
고도 800ft 상공 구름 조금
고도 2400ft 상공 구름 많음
전환 중
21일 14시부터 21일 16시까지 (UTC)
시정 10km 이상
고도 3000ft 상공 구름 보통
일시적
21일 20시부터 22일 02시까지 (UTC)
시정: 6000m
고도 2600ft 상공 구름 많음
고도 8000ft 상공 구름 보통
약한비
전환 중
22일 02시부터 22일 04시까지 (UTC)
시정 10km 이상
고도 1000ft 상공 구름 조금
고도 2400ft 상공 구름 많음

TAF: MHTG 210425Z 2106/2206 36012KT 9999 BKN026 TX27/2120Z TN15/2112Z BECMG 2109/2111 7000 FEW008 BKN024 BECMG 2114/2116 9999 NSW SCT030 TEMPO 2120/2202 6000 -RA BKN026 SCT080 BECMG 2202/2204 9999 NSW FEW010 BKN024

4,000개 이상의 공항 관측 자료 및 예보 (METAR 및 TAF 보고).

지도상에서 검색 가능한 기상관측소가 노란 점과 빨간 점으로 표시되어 있습니다.

기상관측소 명을 보려면 표시 위로 마우스를 이동하세요.

날씨 관측과 예보를 보려면 클릭하세요.

지도 변경 : 확대하려면 엑스 표시가 있는 녹색 버튼, 축소하려면 빼기 표시가 있는 녹색 버튼, 다음 페이지의 지도를 보려면 녹색 화살표를 클릭하세요.


METAR-TAF: